sensor_id;sensor_type;location;lat;lon;timestamp;pressure;altitude;pressure_sealevel;temperature;humidity
1029;BME280;503;48.120;11.488;2022-08-11T00:01:17;95810.75;;;22.18;39.80
1029;BME280;503;48.120;11.488;2022-08-11T00:03:50;95810.00;;;22.21;39.68
1029;BME280;503;48.120;11.488;2022-08-11T00:06:38;95817.97;;;22.11;41.17
1029;BME280;503;48.120;11.488;2022-08-11T00:09:10;95826.03;;;22.07;40.56
1029;BME280;503;48.120;11.488;2022-08-11T00:11:43;95808.41;;;22.17;40.08
1029;BME280;503;48.120;11.488;2022-08-11T00:14:19;95814.97;;;22.16;40.02
1029;BME280;503;48.120;11.488;2022-08-11T00:19:34;95813.81;;;21.74;41.29
1029;BME280;503;48.120;11.488;2022-08-11T00:22:00;95813.41;;;21.95;40.14
1029;BME280;503;48.120;11.488;2022-08-11T00:24:38;95829.94;;;21.87;40.70
1029;BME280;503;48.120;11.488;2022-08-11T00:27:05;95811.97;;;21.78;40.22
1029;BME280;503;48.120;11.488;2022-08-11T00:29:31;95832.94;;;21.82;40.68
1029;BME280;503;48.120;11.488;2022-08-11T00:31:59;95830.06;;;21.74;40.69
1029;BME280;503;48.120;11.488;2022-08-11T00:34:28;95831.66;;;21.75;40.79
1029;BME280;503;48.120;11.488;2022-08-11T00:39:30;95819.78;;;21.61;41.01
1029;BME280;503;48.120;11.488;2022-08-11T00:42:09;95831.97;;;21.51;41.68
1029;BME280;503;48.120;11.488;2022-08-11T01:05:05;95812.91;;;21.28;42.13
1029;BME280;503;48.120;11.488;2022-08-11T01:08:06;95812.84;;;21.24;42.96
1029;BME280;503;48.120;11.488;2022-08-11T01:13:32;95811.13;;;21.16;42.29
1029;BME280;503;48.120;11.488;2022-08-11T01:16:29;95804.94;;;21.16;42.45
1029;BME280;503;48.120;11.488;2022-08-11T01:19:16;95818.59;;;21.03;43.22
1029;BME280;503;48.120;11.488;2022-08-11T01:34:13;95808.38;;;20.77;43.60
1029;BME280;503;48.120;11.488;2022-08-11T01:37:11;95802.03;;;20.70;43.66
1029;BME280;503;48.120;11.488;2022-08-11T01:45:29;95811.19;;;20.65;44.26
1029;BME280;503;48.120;11.488;2022-08-11T02:02:12;95809.28;;;20.66;43.88
1029;BME280;503;48.120;11.488;2022-08-11T02:04:58;95793.78;;;20.63;43.80
1029;BME280;503;48.120;11.488;2022-08-11T02:07:46;95793.59;;;20.56;44.00
1029;BME280;503;48.120;11.488;2022-08-11T02:10:43;95800.66;;;20.60;44.10
1029;BME280;503;48.120;11.488;2022-08-11T02:13:46;95799.78;;;20.56;44.25
1029;BME280;503;48.120;11.488;2022-08-11T02:16:27;95805.97;;;20.57;44.12
1029;BME280;503;48.120;11.488;2022-08-11T02:19:32;95802.69;;;20.47;44.38
1029;BME280;503;48.120;11.488;2022-08-11T02:22:31;95797.94;;;20.44;44.14
1029;BME280;503;48.120;11.488;2022-08-11T02:25:34;95794.22;;;20.33;44.66
1029;BME280;503;48.120;11.488;2022-08-11T02:28:28;95796.19;;;20.36;44.57
1029;BME280;503;48.120;11.488;2022-08-11T02:36:57;95788.47;;;20.19;44.86
1029;BME280;503;48.120;11.488;2022-08-11T02:39:33;95776.19;;;20.06;45.75
1029;BME280;503;48.120;11.488;2022-08-11T02:42:20;95789.88;;;20.13;45.66
1029;BME280;503;48.120;11.488;2022-08-11T02:47:31;95776.03;;;19.98;45.84
1029;BME280;503;48.120;11.488;2022-08-11T02:50:20;95790.72;;;20.01;46.27
1029;BME280;503;48.120;11.488;2022-08-11T02:53:02;95787.97;;;19.97;45.87
1029;BME280;503;48.120;11.488;2022-08-11T02:58:48;95790.47;;;20.06;45.45
1029;BME280;503;48.120;11.488;2022-08-11T03:02:13;95785.94;;;20.10;45.57
1029;BME280;503;48.120;11.488;2022-08-11T03:05:02;95781.31;;;19.95;46.13
1029;BME280;503;48.120;11.488;2022-08-11T03:07:45;95791.44;;;19.98;45.94
1029;BME280;503;48.120;11.488;2022-08-11T03:13:16;95780.19;;;19.96;45.48
1029;BME280;503;48.120;11.488;2022-08-11T03:16:24;95795.97;;;19.94;45.92
1029;BME280;503;48.120;11.488;2022-08-11T03:19:36;95786.72;;;19.79;46.52
1029;BME280;503;48.120;11.488;2022-08-11T03:24:58;95776.47;;;19.57;47.15
1029;BME280;503;48.120;11.488;2022-08-11T03:30:20;95791.75;;;19.65;47.20
1029;BME280;503;48.120;11.488;2022-08-11T03:32:56;95785.50;;;19.77;46.83
1029;BME280;503;48.120;11.488;2022-08-11T03:35:53;95780.53;;;19.79;46.31
1029;BME280;503;48.120;11.488;2022-08-11T03:38:25;95775.50;;;19.77;46.21
1029;BME280;503;48.120;11.488;2022-08-11T03:41:07;95773.13;;;19.76;46.67
1029;BME280;503;48.120;11.488;2022-08-11T03:44:09;95789.50;;;19.83;46.61
1029;BME280;503;48.120;11.488;2022-08-11T03:49:49;95785.22;;;19.66;47.07
1029;BME280;503;48.120;11.488;2022-08-11T03:55:22;95781.59;;;19.46;47.45
1029;BME280;503;48.120;11.488;2022-08-11T04:01:33;95788.03;;;19.41;47.76
1029;BME280;503;48.120;11.488;2022-08-11T04:07:03;95792.91;;;19.52;47.40
1029;BME280;503;48.120;11.488;2022-08-11T04:12:45;95783.34;;;19.54;47.39
1029;BME280;503;48.120;11.488;2022-08-11T04:30:14;95771.72;;;19.38;48.07
1029;BME280;503;48.120;11.488;2022-08-11T04:33:30;95781.91;;;19.44;47.98
1029;BME280;503;48.120;11.488;2022-08-11T04:36:01;95786.72;;;19.35;48.15
1029;BME280;503;48.120;11.488;2022-08-11T04:57:36;95798.22;;;20.23;46.47
1029;BME280;503;48.120;11.488;2022-08-11T05:00:29;95790.78;;;20.68;45.67
1029;BME280;503;48.120;11.488;2022-08-11T05:11:42;95799.13;;;21.33;44.44
1029;BME280;503;48.120;11.488;2022-08-11T05:17:04;95803.09;;;21.20;44.04
1029;BME280;503;48.120;11.488;2022-08-11T05:19:51;95798.38;;;20.97;44.27
1029;BME280;503;48.120;11.488;2022-08-11T05:22:35;95789.97;;;21.02;44.15
1029;BME280;503;48.120;11.488;2022-08-11T05:25:27;95793.88;;;21.40;44.00
1029;BME280;503;48.120;11.488;2022-08-11T05:28:15;95802.41;;;21.42;43.65
1029;BME280;503;48.120;11.488;2022-08-11T05:31:08;95798.31;;;21.13;43.71
1029;BME280;503;48.120;11.488;2022-08-11T05:33:58;95798.31;;;20.94;44.34
1029;BME280;503;48.120;11.488;2022-08-11T05:36:52;95793.09;;;21.24;44.02
1029;BME280;503;48.120;11.488;2022-08-11T05:39:28;95799.72;;;20.53;45.50
1029;BME280;503;48.120;11.488;2022-08-11T05:42:15;95799.28;;;20.86;44.60
1029;BME280;503;48.120;11.488;2022-08-11T05:45:04;95797.06;;;20.56;45.00
1029;BME280;503;48.120;11.488;2022-08-11T05:47:53;95800.34;;;20.81;44.50
1029;BME280;503;48.120;11.488;2022-08-11T05:50:38;95806.97;;;21.03;44.09
1029;BME280;503;48.120;11.488;2022-08-11T05:53:23;95793.69;;;20.94;44.25
1029;BME280;503;48.120;11.488;2022-08-11T05:56:08;95796.81;;;20.61;45.03
1029;BME280;503;48.120;11.488;2022-08-11T05:58:46;95782.78;;;20.56;45.16
1029;BME280;503;48.120;11.488;2022-08-11T06:01:29;95782.63;;;21.03;44.23
1029;BME280;503;48.120;11.488;2022-08-11T06:03:56;95796.22;;;20.87;44.68
1029;BME280;503;48.120;11.488;2022-08-11T06:06:55;95796.59;;;21.05;44.64
1029;BME280;503;48.120;11.488;2022-08-11T06:09:48;95787.56;;;21.17;43.94
1029;BME280;503;48.120;11.488;2022-08-11T06:12:26;95789.84;;;20.95;44.41
1029;BME280;503;48.120;11.488;2022-08-11T06:14:55;95789.97;;;21.22;43.82
1029;BME280;503;48.120;11.488;2022-08-11T06:17:28;95789.34;;;21.28;43.79
1029;BME280;503;48.120;11.488;2022-08-11T06:20:05;95799.69;;;21.62;44.50
1029;BME280;503;48.120;11.488;2022-08-11T06:22:34;95788.91;;;21.65;43.43
1029;BME280;503;48.120;11.488;2022-08-11T06:25:00;95780.38;;;22.09;42.74
1029;BME280;503;48.120;11.488;2022-08-11T06:27:30;95794.00;;;22.36;41.57
1029;BME280;503;48.120;11.488;2022-08-11T06:29:57;95797.31;;;22.25;41.01
1029;BME280;503;48.120;11.488;2022-08-11T06:32:29;95794.03;;;21.93;42.00
1029;BME280;503;48.120;11.488;2022-08-11T06:40:40;95800.06;;;21.83;42.36
1029;BME280;503;48.120;11.488;2022-08-11T06:43:14;95801.44;;;21.73;42.64
1029;BME280;503;48.120;11.488;2022-08-11T06:45:59;95807.84;;;22.08;41.94
1029;BME280;503;48.120;11.488;2022-08-11T06:48:30;95790.59;;;21.73;42.74
1029;BME280;503;48.120;11.488;2022-08-11T06:51:08;95803.50;;;22.03;42.06
1029;BME280;503;48.120;11.488;2022-08-11T06:53:55;95798.78;;;22.00;42.27
1029;BME280;503;48.120;11.488;2022-08-11T06:56:24;95812.38;;;22.23;42.08
1029;BME280;503;48.120;11.488;2022-08-11T06:59:10;95801.94;;;22.02;42.15
1029;BME280;503;48.120;11.488;2022-08-11T07:02:07;95813.19;;;22.04;42.51
1029;BME280;503;48.120;11.488;2022-08-11T07:04:43;95807.13;;;21.68;43.22
1029;BME280;503;48.120;11.488;2022-08-11T07:07:32;95820.06;;;21.56;43.48
1029;BME280;503;48.120;11.488;2022-08-11T07:10:46;95826.81;;;21.65;43.41
1029;BME280;503;48.120;11.488;2022-08-11T07:13:37;95815.41;;;21.98;42.73
1029;BME280;503;48.120;11.488;2022-08-11T07:16:25;95803.31;;;22.12;42.36
1029;BME280;503;48.120;11.488;2022-08-11T07:18:55;95798.41;;;22.21;42.53
1029;BME280;503;48.120;11.488;2022-08-11T07:21:45;95789.56;;;22.50;41.95
1029;BME280;503;48.120;11.488;2022-08-11T07:24:40;95800.47;;;22.54;41.22
1029;BME280;503;48.120;11.488;2022-08-11T07:27:30;95790.72;;;22.49;41.65
1029;BME280;503;48.120;11.488;2022-08-11T07:30:18;95787.91;;;22.42;41.54
1029;BME280;503;48.120;11.488;2022-08-11T07:32:49;95787.63;;;22.24;42.59
1029;BME280;503;48.120;11.488;2022-08-11T07:35:17;95787.53;;;21.75;42.80
1029;BME280;503;48.120;11.488;2022-08-11T07:37:47;95787.91;;;22.42;41.84
1029;BME280;503;48.120;11.488;2022-08-11T07:40:20;95788.03;;;23.06;40.88
1029;BME280;503;48.120;11.488;2022-08-11T07:42:47;95790.72;;;23.02;40.14
1029;BME280;503;48.120;11.488;2022-08-11T07:45:13;95784.91;;;23.34;39.23
1029;BME280;503;48.120;11.488;2022-08-11T07:47:58;95784.16;;;23.37;39.50
1029;BME280;503;48.120;11.488;2022-08-11T07:50:43;95781.66;;;23.21;39.93
1029;BME280;503;48.120;11.488;2022-08-11T07:53:28;95782.06;;;23.57;39.29
1029;BME280;503;48.120;11.488;2022-08-11T07:55:56;95779.53;;;23.07;40.28
1029;BME280;503;48.120;11.488;2022-08-11T07:58:23;95776.75;;;23.00;40.24
1029;BME280;503;48.120;11.488;2022-08-11T08:01:07;95776.47;;;23.09;39.72
1029;BME280;503;48.120;11.488;2022-08-11T08:03:53;95785.50;;;23.20;39.93
1029;BME280;503;48.120;11.488;2022-08-11T08:06:38;95781.94;;;23.46;39.18
1029;BME280;503;48.120;11.488;2022-08-11T08:09:23;95775.28;;;23.40;39.34
1029;BME280;503;48.120;11.488;2022-08-11T08:12:08;95774.28;;;23.22;40.32
1029;BME280;503;48.120;11.488;2022-08-11T08:14:54;95790.38;;;23.71;39.03
1029;BME280;503;48.120;11.488;2022-08-11T08:17:40;95786.38;;;23.61;39.17
1029;BME280;503;48.120;11.488;2022-08-11T08:20:46;95787.78;;;23.82;38.82
1029;BME280;503;48.120;11.488;2022-08-11T08:23:14;95773.91;;;23.94;38.47
1029;BME280;503;48.120;11.488;2022-08-11T08:25:41;95778.47;;;24.31;38.37
1029;BME280;503;48.120;11.488;2022-08-11T08:28:14;95779.59;;;24.23;38.80
1029;BME280;503;48.120;11.488;2022-08-11T08:30:41;95785.84;;;24.30;38.96
1029;BME280;503;48.120;11.488;2022-08-11T08:33:19;95794.13;;;23.97;38.85
1029;BME280;503;48.120;11.488;2022-08-11T08:35:47;95781.94;;;23.83;38.93
1029;BME280;503;48.120;11.488;2022-08-11T08:38:13;95782.16;;;24.05;38.68
1029;BME280;503;48.120;11.488;2022-08-11T08:40:41;95787.78;;;24.26;38.43
1029;BME280;503;48.120;11.488;2022-08-11T08:43:08;95790.81;;;24.18;38.67
1029;BME280;503;48.120;11.488;2022-08-11T08:45:35;95782.34;;;23.48;40.21
1029;BME280;503;48.120;11.488;2022-08-11T08:48:08;95789.69;;;24.22;39.02
1029;BME280;503;48.120;11.488;2022-08-11T08:50:39;95794.59;;;24.06;39.44
1029;BME280;503;48.120;11.488;2022-08-11T08:53:29;95789.38;;;23.90;39.62
1029;BME280;503;48.120;11.488;2022-08-11T08:56:00;95797.06;;;24.25;38.61
1029;BME280;503;48.120;11.488;2022-08-11T08:58:28;95786.38;;;24.43;38.57
1029;BME280;503;48.120;11.488;2022-08-11T09:00:57;95784.16;;;24.11;39.77
1029;BME280;503;48.120;11.488;2022-08-11T09:03:23;95780.19;;;24.50;38.34
1029;BME280;503;48.120;11.488;2022-08-11T09:05:53;95776.53;;;24.28;39.30
1029;BME280;503;48.120;11.488;2022-08-11T09:08:19;95782.75;;;24.87;38.22
1029;BME280;503;48.120;11.488;2022-08-11T09:10:46;95783.09;;;24.23;38.74
1029;BME280;503;48.120;11.488;2022-08-11T09:13:36;95781.03;;;25.20;37.31
1029;BME280;503;48.120;11.488;2022-08-11T09:16:05;95789.13;;;25.09;37.55
1029;BME280;503;48.120;11.488;2022-08-11T09:18:33;95781.31;;;25.04;37.26
1029;BME280;503;48.120;11.488;2022-08-11T09:21:01;95791.72;;;25.78;36.40
1029;BME280;503;48.120;11.488;2022-08-11T09:23:27;95786.41;;;25.12;37.17
1029;BME280;503;48.120;11.488;2022-08-11T09:26:12;95786.75;;;25.04;37.45
1029;BME280;503;48.120;11.488;2022-08-11T09:28:58;95786.25;;;24.84;37.33
1029;BME280;503;48.120;11.488;2022-08-11T09:31:24;95778.50;;;24.89;37.19
1029;BME280;503;48.120;11.488;2022-08-11T09:33:53;95786.63;;;24.82;37.47
1029;BME280;503;48.120;11.488;2022-08-11T09:36:18;95795.22;;;24.92;37.43
1029;BME280;503;48.120;11.488;2022-08-11T09:39:04;95791.44;;;25.07;37.10
1029;BME280;503;48.120;11.488;2022-08-11T09:41:48;95788.63;;;24.93;37.09
1029;BME280;503;48.120;11.488;2022-08-11T09:44:15;95800.50;;;25.25;36.55
1029;BME280;503;48.120;11.488;2022-08-11T09:47:00;95784.28;;;25.64;37.56
1029;BME280;503;48.120;11.488;2022-08-11T09:49:27;95795.66;;;25.95;35.19
1029;BME280;503;48.120;11.488;2022-08-11T09:51:54;95790.56;;;25.79;35.54
1029;BME280;503;48.120;11.488;2022-08-11T09:54:20;95793.25;;;25.72;35.35
1029;BME280;503;48.120;11.488;2022-08-11T09:56:47;95785.03;;;25.51;35.94
1029;BME280;503;48.120;11.488;2022-08-11T09:59:31;95778.53;;;26.02;34.31
1029;BME280;503;48.120;11.488;2022-08-11T10:01:59;95777.75;;;25.98;34.33
1029;BME280;503;48.120;11.488;2022-08-11T10:04:32;95784.38;;;26.07;33.91
1029;BME280;503;48.120;11.488;2022-08-11T10:07:02;95768.69;;;25.61;34.10
1029;BME280;503;48.120;11.488;2022-08-11T10:09:46;95777.72;;;25.94;33.71
1029;BME280;503;48.120;11.488;2022-08-11T10:14:45;95769.19;;;26.10;33.21
1029;BME280;503;48.120;11.488;2022-08-11T10:17:35;95765.69;;;26.38;33.76
1029;BME280;503;48.120;11.488;2022-08-11T10:20:01;95746.19;;;26.64;33.85
1029;BME280;503;48.120;11.488;2022-08-11T10:22:33;95758.19;;;27.03;32.38
1029;BME280;503;48.120;11.488;2022-08-11T10:25:38;95722.81;;;26.35;32.55
1029;BME280;503;48.120;11.488;2022-08-11T10:28:22;95731.00;;;26.53;32.40
1029;BME280;503;48.120;11.488;2022-08-11T10:30:48;95702.94;;;26.63;32.58
1029;BME280;503;48.120;11.488;2022-08-11T10:33:34;95749.56;;;27.18;31.54
1029;BME280;503;48.120;11.488;2022-08-11T10:36:19;95710.31;;;26.73;32.44
1029;BME280;503;48.120;11.488;2022-08-11T10:38:45;95733.22;;;27.08;31.81
1029;BME280;503;48.120;11.488;2022-08-11T10:41:18;95752.63;;;27.31;31.33
1029;BME280;503;48.120;11.488;2022-08-11T10:44:05;95740.72;;;26.68;32.37
1029;BME280;503;48.120;11.488;2022-08-11T10:46:32;95733.22;;;27.04;31.48
1029;BME280;503;48.120;11.488;2022-08-11T10:49:17;95686.16;;;26.64;32.24
1029;BME280;503;48.120;11.488;2022-08-11T10:51:44;95675.09;;;27.04;31.52
1029;BME280;503;48.120;11.488;2022-08-11T10:54:29;95701.28;;;26.90;32.01
1029;BME280;503;48.120;11.488;2022-08-11T10:57:16;95741.41;;;27.08;31.54
1029;BME280;503;48.120;11.488;2022-08-11T11:00:00;95725.78;;;27.12;32.08
1029;BME280;503;48.120;11.488;2022-08-11T11:02:27;95730.06;;;27.02;32.19
1029;BME280;503;48.120;11.488;2022-08-11T11:07:39;95732.31;;;28.02;30.83
1029;BME280;503;48.120;11.488;2022-08-11T11:10:07;95723.09;;;27.08;31.27
1029;BME280;503;48.120;11.488;2022-08-11T11:12:43;95725.41;;;27.83;30.48
1029;BME280;503;48.120;11.488;2022-08-11T11:15:30;95727.44;;;27.72;30.53
1029;BME280;503;48.120;11.488;2022-08-11T11:21:10;95738.66;;;27.88;31.04
1029;BME280;503;48.120;11.488;2022-08-11T11:26:57;95714.59;;;28.17;29.77
1029;BME280;503;48.120;11.488;2022-08-11T11:29:50;95724.31;;;27.70;30.44
1029;BME280;503;48.120;11.488;2022-08-11T11:37:41;95713.38;;;27.70;31.18
1029;BME280;503;48.120;11.488;2022-08-11T11:40:09;95715.78;;;27.57;30.89
1029;BME280;503;48.120;11.488;2022-08-11T11:42:38;95706.41;;;27.62;30.41
1029;BME280;503;48.120;11.488;2022-08-11T11:45:05;95710.06;;;28.00;30.60
1029;BME280;503;48.120;11.488;2022-08-11T11:47:31;95700.25;;;27.43;31.22
1029;BME280;503;48.120;11.488;2022-08-11T11:49:57;95716.06;;;27.81;30.11
1029;BME280;503;48.120;11.488;2022-08-11T11:52:23;95702.25;;;27.98;29.75
1029;BME280;503;48.120;11.488;2022-08-11T11:54:53;95689.75;;;28.01;30.16
1029;BME280;503;48.120;11.488;2022-08-11T11:57:20;95715.13;;;28.02;29.61
1029;BME280;503;48.120;11.488;2022-08-11T12:00:08;95704.28;;;27.91;29.77
1029;BME280;503;48.120;11.488;2022-08-11T12:02:54;95705.75;;;28.47;29.67
1029;BME280;503;48.120;11.488;2022-08-11T12:05:20;95701.34;;;28.12;29.97
1029;BME280;503;48.120;11.488;2022-08-11T12:07:46;95704.66;;;28.38;29.53
1029;BME280;503;48.120;11.488;2022-08-11T12:10:31;95703.28;;;28.15;29.62
1029;BME280;503;48.120;11.488;2022-08-11T12:13:00;95690.22;;;28.37;29.19
1029;BME280;503;48.120;11.488;2022-08-11T12:15:46;95696.50;;;28.34;28.82
1029;BME280;503;48.120;11.488;2022-08-11T12:18:13;95693.78;;;28.72;28.74
1029;BME280;503;48.120;11.488;2022-08-11T12:20:41;95688.16;;;28.48;29.14
1029;BME280;503;48.120;11.488;2022-08-11T12:23:07;95694.94;;;28.33;28.81
1029;BME280;503;48.120;11.488;2022-08-11T12:25:51;95692.94;;;28.41;28.77
1029;BME280;503;48.120;11.488;2022-08-11T12:28:35;95687.69;;;28.09;28.79
1029;BME280;503;48.120;11.488;2022-08-11T12:31:02;95688.91;;;28.08;29.17
1029;BME280;503;48.120;11.488;2022-08-11T12:33:28;95686.63;;;28.44;29.08
1029;BME280;503;48.120;11.488;2022-08-11T12:35:58;95672.31;;;28.67;27.37
1029;BME280;503;48.120;11.488;2022-08-11T12:38:24;95644.81;;;28.43;28.05
1029;BME280;503;48.120;11.488;2022-08-11T12:40:51;95669.00;;;28.83;28.23
1029;BME280;503;48.120;11.488;2022-08-11T12:43:36;95679.78;;;28.97;27.94
1029;BME280;503;48.120;11.488;2022-08-11T12:46:22;95670.69;;;28.73;28.39
1029;BME280;503;48.120;11.488;2022-08-11T12:48:55;95678.69;;;29.21;28.06
1029;BME280;503;48.120;11.488;2022-08-11T12:51:40;95672.56;;;28.80;27.42
1029;BME280;503;48.120;11.488;2022-08-11T12:57:12;95671.56;;;28.66;27.99
1029;BME280;503;48.120;11.488;2022-08-11T12:59:58;95667.25;;;29.30;26.70
1029;BME280;503;48.120;11.488;2022-08-11T13:02:43;95661.31;;;29.35;27.29
1029;BME280;503;48.120;11.488;2022-08-11T13:05:28;95667.03;;;29.44;26.94
1029;BME280;503;48.120;11.488;2022-08-11T13:07:59;95655.28;;;29.74;26.66
1029;BME280;503;48.120;11.488;2022-08-11T13:10:25;95647.44;;;29.19;26.73
1029;BME280;503;48.120;11.488;2022-08-11T13:13:11;95647.78;;;29.48;27.04
1029;BME280;503;48.120;11.488;2022-08-11T13:15:38;95649.56;;;29.08;27.35
1029;BME280;503;48.120;11.488;2022-08-11T13:18:04;95643.50;;;29.20;27.14
1029;BME280;503;48.120;11.488;2022-08-11T13:20:33;95645.13;;;29.71;26.22
1029;BME280;503;48.120;11.488;2022-08-11T13:23:00;95648.84;;;29.58;26.65
1029;BME280;503;48.120;11.488;2022-08-11T13:25:29;95657.38;;;29.36;27.03
1029;BME280;503;48.120;11.488;2022-08-11T13:27:57;95656.69;;;29.59;26.37
1029;BME280;503;48.120;11.488;2022-08-11T13:30:28;95655.50;;;29.84;25.66
1029;BME280;503;48.120;11.488;2022-08-11T13:33:14;95650.66;;;29.68;25.86
1029;BME280;503;48.120;11.488;2022-08-11T13:35:47;95634.88;;;29.48;26.63
1029;BME280;503;48.120;11.488;2022-08-11T13:38:15;95654.94;;;29.42;26.53
1029;BME280;503;48.120;11.488;2022-08-11T13:40:42;95644.69;;;29.73;25.67
1029;BME280;503;48.120;11.488;2022-08-11T13:43:07;95638.44;;;29.72;25.90
1029;BME280;503;48.120;11.488;2022-08-11T13:45:35;95639.47;;;29.59;25.99
1029;BME280;503;48.120;11.488;2022-08-11T13:48:02;95642.16;;;29.32;26.20
1029;BME280;503;48.120;11.488;2022-08-11T13:50:31;95640.06;;;29.70;25.84
1029;BME280;503;48.120;11.488;2022-08-11T13:53:16;95628.31;;;29.93;25.66
1029;BME280;503;48.120;11.488;2022-08-11T13:55:45;95635.81;;;29.89;25.25
1029;BME280;503;48.120;11.488;2022-08-11T13:58:11;95632.34;;;30.08;25.44
1029;BME280;503;48.120;11.488;2022-08-11T14:00:38;95641.47;;;29.78;25.52
1029;BME280;503;48.120;11.488;2022-08-11T14:03:08;95634.75;;;30.29;25.07
1029;BME280;503;48.120;11.488;2022-08-11T14:05:41;95641.59;;;29.71;26.14
1029;BME280;503;48.120;11.488;2022-08-11T14:08:13;95626.41;;;30.13;25.63
1029;BME280;503;48.120;11.488;2022-08-11T14:10:40;95636.00;;;30.25;24.92
1029;BME280;503;48.120;11.488;2022-08-11T14:13:08;95622.47;;;30.58;24.83
1029;BME280;503;48.120;11.488;2022-08-11T14:15:55;95633.69;;;30.23;24.67
1029;BME280;503;48.120;11.488;2022-08-11T14:18:28;95623.69;;;30.10;24.82
1029;BME280;503;48.120;11.488;2022-08-11T14:20:56;95628.13;;;30.03;25.06
1029;BME280;503;48.120;11.488;2022-08-11T14:23:52;95640.94;;;29.36;25.34
1029;BME280;503;48.120;11.488;2022-08-11T14:26:20;95629.75;;;29.77;24.46
1029;BME280;503;48.120;11.488;2022-08-11T14:29:06;95623.53;;;29.97;26.26
1029;BME280;503;48.120;11.488;2022-08-11T14:31:37;95623.84;;;30.26;25.45
1029;BME280;503;48.120;11.488;2022-08-11T14:34:05;95627.06;;;29.74;25.20
1029;BME280;503;48.120;11.488;2022-08-11T14:36:34;95625.09;;;29.98;25.24
1029;BME280;503;48.120;11.488;2022-08-11T14:39:03;95627.22;;;30.34;25.70
1029;BME280;503;48.120;11.488;2022-08-11T14:41:30;95612.03;;;30.49;25.04
1029;BME280;503;48.120;11.488;2022-08-11T14:44:14;95613.59;;;30.70;23.82
1029;BME280;503;48.120;11.488;2022-08-11T14:47:00;95625.88;;;31.01;24.01
1029;BME280;503;48.120;11.488;2022-08-11T14:49:30;95619.16;;;31.58;23.34
1029;BME280;503;48.120;11.488;2022-08-11T14:51:57;95610.03;;;31.45;23.17
1029;BME280;503;48.120;11.488;2022-08-11T14:54:28;95619.50;;;31.44;23.25
1029;BME280;503;48.120;11.488;2022-08-11T14:57:13;95618.81;;;30.84;23.28
1029;BME280;503;48.120;11.488;2022-08-11T14:59:38;95605.72;;;30.72;22.68
1029;BME280;503;48.120;11.488;2022-08-11T15:02:05;95631.00;;;30.83;22.76
1029;BME280;503;48.120;11.488;2022-08-11T15:04:50;95614.44;;;31.59;22.68
1029;BME280;503;48.120;11.488;2022-08-11T15:07:16;95604.53;;;31.45;22.17
1029;BME280;503;48.120;11.488;2022-08-11T15:09:42;95600.31;;;32.06;22.27
1029;BME280;503;48.120;11.488;2022-08-11T15:12:09;95607.63;;;31.80;22.63
1029;BME280;503;48.120;11.488;2022-08-11T15:14:42;95611.25;;;31.93;22.36
1029;BME280;503;48.120;11.488;2022-08-11T15:17:29;95614.91;;;31.38;22.18
1029;BME280;503;48.120;11.488;2022-08-11T15:19:59;95613.06;;;31.83;22.79
1029;BME280;503;48.120;11.488;2022-08-11T15:22:45;95605.03;;;31.73;23.21
1029;BME280;503;48.120;11.488;2022-08-11T15:25:29;95605.41;;;31.75;21.73
1029;BME280;503;48.120;11.488;2022-08-11T15:27:56;95613.66;;;31.75;22.92
1029;BME280;503;48.120;11.488;2022-08-11T15:30:41;95593.16;;;31.27;22.17
1029;BME280;503;48.120;11.488;2022-08-11T15:33:27;95602.28;;;31.40;22.10
1029;BME280;503;48.120;11.488;2022-08-11T15:36:13;95606.38;;;31.85;23.48
1029;BME280;503;48.120;11.488;2022-08-11T15:39:02;95606.91;;;32.25;21.67
1029;BME280;503;48.120;11.488;2022-08-11T15:41:33;95598.34;;;31.41;21.93
1029;BME280;503;48.120;11.488;2022-08-11T15:44:21;95599.47;;;31.60;24.15
1029;BME280;503;48.120;11.488;2022-08-11T15:47:05;95596.97;;;30.37;24.28
1029;BME280;503;48.120;11.488;2022-08-11T15:49:36;95575.63;;;30.45;23.44
1029;BME280;503;48.120;11.488;2022-08-11T15:52:08;95600.09;;;30.79;23.13
1029;BME280;503;48.120;11.488;2022-08-11T15:54:38;95587.22;;;31.12;22.74
1029;BME280;503;48.120;11.488;2022-08-11T15:57:06;95569.59;;;30.34;23.15
1029;BME280;503;48.120;11.488;2022-08-11T15:59:34;95597.50;;;29.85;23.20
1029;BME280;503;48.120;11.488;2022-08-11T16:02:20;95591.22;;;30.32;23.09
1029;BME280;503;48.120;11.488;2022-08-11T16:04:50;95585.00;;;30.04;23.97
1029;BME280;503;48.120;11.488;2022-08-11T16:07:19;95587.16;;;29.46;23.60
1029;BME280;503;48.120;11.488;2022-08-11T16:09:54;95564.00;;;28.96;24.56
1029;BME280;503;48.120;11.488;2022-08-11T16:12:22;95593.41;;;29.46;23.90
1029;BME280;503;48.120;11.488;2022-08-11T16:14:52;95588.22;;;29.29;24.71
1029;BME280;503;48.120;11.488;2022-08-11T16:17:43;95588.59;;;29.27;23.51
1029;BME280;503;48.120;11.488;2022-08-11T16:20:12;95589.84;;;29.22;23.45
1029;BME280;503;48.120;11.488;2022-08-11T16:22:39;95577.22;;;29.01;23.87
1029;BME280;503;48.120;11.488;2022-08-11T16:25:10;95579.50;;;29.07;23.66
1029;BME280;503;48.120;11.488;2022-08-11T16:27:40;95574.59;;;29.48;23.48
1029;BME280;503;48.120;11.488;2022-08-11T16:30:08;95593.09;;;29.68;23.59
1029;BME280;503;48.120;11.488;2022-08-11T16:32:37;95582.13;;;29.91;22.45
1029;BME280;503;48.120;11.488;2022-08-11T16:35:10;95572.53;;;30.23;22.49
1029;BME280;503;48.120;11.488;2022-08-11T16:37:55;95579.75;;;30.57;22.02
1029;BME280;503;48.120;11.488;2022-08-11T16:40:41;95571.56;;;30.33;21.40
1029;BME280;503;48.120;11.488;2022-08-11T16:43:13;95576.44;;;31.54;20.65
1029;BME280;503;48.120;11.488;2022-08-11T16:45:59;95571.22;;;32.21;19.46
1029;BME280;503;48.120;11.488;2022-08-11T16:49:24;95567.47;;;32.99;18.80
1029;BME280;503;48.120;11.488;2022-08-11T16:51:50;95576.03;;;33.90;18.28
1029;BME280;503;48.120;11.488;2022-08-11T16:54:17;95572.81;;;34.26;17.73
1029;BME280;503;48.120;11.488;2022-08-11T16:56:45;95570.50;;;32.75;19.22
1029;BME280;503;48.120;11.488;2022-08-11T16:59:18;95571.56;;;34.40;17.90
1029;BME280;503;48.120;11.488;2022-08-11T17:01:47;95576.59;;;33.85;18.47
1029;BME280;503;48.120;11.488;2022-08-11T17:04:37;95573.47;;;34.30;18.01